sensor_id;sensor_type;location;lat;lon;timestamp;temperature;humidity
33863;DHT22;20158;51.436;-2.742;2023-12-14T00:01:59;5.50;59.50
33863;DHT22;20158;51.436;-2.742;2023-12-14T00:04:25;5.50;59.60
33863;DHT22;20158;51.436;-2.742;2023-12-14T00:06:51;5.40;59.40
33863;DHT22;20158;51.436;-2.742;2023-12-14T00:09:17;5.40;59.40
33863;DHT22;20158;51.436;-2.742;2023-12-14T00:11:43;5.40;59.40
33863;DHT22;20158;51.436;-2.742;2023-12-14T00:14:09;5.30;59.30
33863;DHT22;20158;51.436;-2.742;2023-12-14T00:16:35;5.30;59.30
33863;DHT22;20158;51.436;-2.742;2023-12-14T00:19:01;5.30;59.30
33863;DHT22;20158;51.436;-2.742;2023-12-14T00:21:28;5.20;59.20
33863;DHT22;20158;51.436;-2.742;2023-12-14T00:23:54;5.20;59.20
33863;DHT22;20158;51.436;-2.742;2023-12-14T00:26:20;5.20;59.20
33863;DHT22;20158;51.436;-2.742;2023-12-14T00:28:49;5.10;59.10
33863;DHT22;20158;51.436;-2.742;2023-12-14T00:31:15;5.10;59.10
33863;DHT22;20158;51.436;-2.742;2023-12-14T00:33:41;5.10;59.10
33863;DHT22;20158;51.436;-2.742;2023-12-14T00:36:08;5.00;59.00
33863;DHT22;20158;51.436;-2.742;2023-12-14T00:38:34;5.00;59.00
33863;DHT22;20158;51.436;-2.742;2023-12-14T00:41:00;5.00;59.00
33863;DHT22;20158;51.436;-2.742;2023-12-14T00:43:26;5.00;59.10
33863;DHT22;20158;51.436;-2.742;2023-12-14T00:45:53;4.90;58.90
33863;DHT22;20158;51.436;-2.742;2023-12-14T00:48:19;4.90;58.90
33863;DHT22;20158;51.436;-2.742;2023-12-14T00:50:45;4.90;58.90
33863;DHT22;20158;51.436;-2.742;2023-12-14T00:53:15;4.90;59.00
33863;DHT22;20158;51.436;-2.742;2023-12-14T00:55:41;4.90;59.00
33863;DHT22;20158;51.436;-2.742;2023-12-14T00:58:07;4.80;58.80
33863;DHT22;20158;51.436;-2.742;2023-12-14T01:00:34;4.80;58.80
33863;DHT22;20158;51.436;-2.742;2023-12-14T01:03:00;4.70;58.70
33863;DHT22;20158;51.436;-2.742;2023-12-14T01:05:25;4.70;58.70
33863;DHT22;20158;51.436;-2.742;2023-12-14T01:07:52;4.70;58.80
33863;DHT22;20158;51.436;-2.742;2023-12-14T01:10:18;4.70;58.70
33863;DHT22;20158;51.436;-2.742;2023-12-14T01:12:44;4.60;58.60
33863;DHT22;20158;51.436;-2.742;2023-12-14T01:15:11;4.70;58.80
33863;DHT22;20158;51.436;-2.742;2023-12-14T01:17:37;4.60;58.60
33863;DHT22;20158;51.436;-2.742;2023-12-14T01:20:07;4.60;58.70
33863;DHT22;20158;51.436;-2.742;2023-12-14T01:22:33;4.60;58.70
33863;DHT22;20158;51.436;-2.742;2023-12-14T01:25:00;4.50;58.50
33863;DHT22;20158;51.436;-2.742;2023-12-14T01:27:26;4.50;58.50
33863;DHT22;20158;51.436;-2.742;2023-12-14T01:29:52;4.50;58.60
33863;DHT22;20158;51.436;-2.742;2023-12-14T01:32:19;4.50;58.60
33863;DHT22;20158;51.436;-2.742;2023-12-14T01:34:46;4.50;58.60
33863;DHT22;20158;51.436;-2.742;2023-12-14T01:37:12;4.50;58.70
33863;DHT22;20158;51.436;-2.742;2023-12-14T01:39:38;4.40;58.50
33863;DHT22;20158;51.436;-2.742;2023-12-14T01:42:04;4.40;58.50
33863;DHT22;20158;51.436;-2.742;2023-12-14T01:44:30;4.40;58.50
33863;DHT22;20158;51.436;-2.742;2023-12-14T01:46:56;4.40;58.50
33863;DHT22;20158;51.436;-2.742;2023-12-14T01:49:22;4.40;58.50
33863;DHT22;20158;51.436;-2.742;2023-12-14T01:51:48;4.40;58.50
33863;DHT22;20158;51.436;-2.742;2023-12-14T01:54:15;4.30;58.40
33863;DHT22;20158;51.436;-2.742;2023-12-14T01:56:41;4.30;58.40
33863;DHT22;20158;51.436;-2.742;2023-12-14T01:59:07;4.30;58.40
33863;DHT22;20158;51.436;-2.742;2023-12-14T02:01:40;4.30;58.50
33863;DHT22;20158;51.436;-2.742;2023-12-14T02:04:07;4.30;58.50
33863;DHT22;20158;51.436;-2.742;2023-12-14T02:06:35;4.30;58.50
33863;DHT22;20158;51.436;-2.742;2023-12-14T02:09:01;4.20;58.40
33863;DHT22;20158;51.436;-2.742;2023-12-14T02:11:31;4.30;58.60
33863;DHT22;20158;51.436;-2.742;2023-12-14T02:13:57;4.30;58.60
33863;DHT22;20158;51.436;-2.742;2023-12-14T02:16:23;4.30;58.60
33863;DHT22;20158;51.436;-2.742;2023-12-14T02:18:49;4.20;58.50
33863;DHT22;20158;51.436;-2.742;2023-12-14T02:21:16;4.30;58.70
33863;DHT22;20158;51.436;-2.742;2023-12-14T02:23:45;4.30;58.70
33863;DHT22;20158;51.436;-2.742;2023-12-14T02:26:12;4.30;58.80
33863;DHT22;20158;51.436;-2.742;2023-12-14T02:28:38;4.30;58.70
33863;DHT22;20158;51.436;-2.742;2023-12-14T02:31:04;4.30;58.80
33863;DHT22;20158;51.436;-2.742;2023-12-14T02:33:30;4.30;58.80
33863;DHT22;20158;51.436;-2.742;2023-12-14T02:35:56;4.30;58.90
33863;DHT22;20158;51.436;-2.742;2023-12-14T02:38:22;4.30;58.80
33863;DHT22;20158;51.436;-2.742;2023-12-14T02:40:48;4.30;58.80
33863;DHT22;20158;51.436;-2.742;2023-12-14T02:43:19;4.30;58.90
33863;DHT22;20158;51.436;-2.742;2023-12-14T02:45:45;4.40;59.10
33863;DHT22;20158;51.436;-2.742;2023-12-14T02:48:12;4.30;58.90
33863;DHT22;20158;51.436;-2.742;2023-12-14T02:50:38;4.30;58.90
33863;DHT22;20158;51.436;-2.742;2023-12-14T02:53:04;4.40;59.10
33863;DHT22;20158;51.436;-2.742;2023-12-14T02:55:30;4.40;59.10
33863;DHT22;20158;51.436;-2.742;2023-12-14T02:58:02;4.40;59.10
33863;DHT22;20158;51.436;-2.742;2023-12-14T03:00:29;4.40;59.20
33863;DHT22;20158;51.436;-2.742;2023-12-14T03:02:56;4.40;59.20
33863;DHT22;20158;51.436;-2.742;2023-12-14T03:05:22;4.40;59.20
33863;DHT22;20158;51.436;-2.742;2023-12-14T03:07:48;4.40;59.20
33863;DHT22;20158;51.436;-2.742;2023-12-14T03:10:15;4.40;59.20
33863;DHT22;20158;51.436;-2.742;2023-12-14T03:12:42;4.40;59.30
33863;DHT22;20158;51.436;-2.742;2023-12-14T03:15:08;4.40;59.30
33863;DHT22;20158;51.436;-2.742;2023-12-14T03:17:37;4.50;59.50
33863;DHT22;20158;51.436;-2.742;2023-12-14T03:20:03;4.50;59.50
33863;DHT22;20158;51.436;-2.742;2023-12-14T03:22:35;4.50;59.50
33863;DHT22;20158;51.436;-2.742;2023-12-14T03:25:02;4.50;59.50
33863;DHT22;20158;51.436;-2.742;2023-12-14T03:27:29;4.50;59.50
33863;DHT22;20158;51.436;-2.742;2023-12-14T03:29:56;4.50;59.50
33863;DHT22;20158;51.436;-2.742;2023-12-14T03:32:25;4.50;59.50
33863;DHT22;20158;51.436;-2.742;2023-12-14T03:34:53;4.50;59.60
33863;DHT22;20158;51.436;-2.742;2023-12-14T03:37:19;4.50;59.60
33863;DHT22;20158;51.436;-2.742;2023-12-14T03:39:45;4.60;59.80
33863;DHT22;20158;51.436;-2.742;2023-12-14T03:42:10;4.60;59.80
33863;DHT22;20158;51.436;-2.742;2023-12-14T03:44:36;4.60;59.80
33863;DHT22;20158;51.436;-2.742;2023-12-14T03:47:03;4.60;59.90
33863;DHT22;20158;51.436;-2.742;2023-12-14T03:49:30;4.60;59.90
33863;DHT22;20158;51.436;-2.742;2023-12-14T03:51:56;4.60;59.90
33863;DHT22;20158;51.436;-2.742;2023-12-14T03:54:22;4.70;60.10
33863;DHT22;20158;51.436;-2.742;2023-12-14T03:56:48;4.70;60.10
33863;DHT22;20158;51.436;-2.742;2023-12-14T03:59:14;4.70;60.10
33863;DHT22;20158;51.436;-2.742;2023-12-14T04:01:40;4.70;60.20
33863;DHT22;20158;51.436;-2.742;2023-12-14T04:04:06;4.70;60.20
33863;DHT22;20158;51.436;-2.742;2023-12-14T04:06:33;4.70;60.20
33863;DHT22;20158;51.436;-2.742;2023-12-14T04:09:00;4.80;60.40
33863;DHT22;20158;51.436;-2.742;2023-12-14T04:11:27;4.80;60.40
33863;DHT22;20158;51.436;-2.742;2023-12-14T04:13:53;4.80;60.40
33863;DHT22;20158;51.436;-2.742;2023-12-14T04:16:20;4.80;60.40
33863;DHT22;20158;51.436;-2.742;2023-12-14T04:18:46;4.90;60.60
33863;DHT22;20158;51.436;-2.742;2023-12-14T04:21:12;4.80;60.40
33863;DHT22;20158;51.436;-2.742;2023-12-14T04:23:38;4.90;60.60
33863;DHT22;20158;51.436;-2.742;2023-12-14T04:26:04;4.90;60.70
33863;DHT22;20158;51.436;-2.742;2023-12-14T04:28:30;4.90;60.70
33863;DHT22;20158;51.436;-2.742;2023-12-14T04:30:56;4.90;60.70
33863;DHT22;20158;51.436;-2.742;2023-12-14T04:33:22;5.00;60.90
33863;DHT22;20158;51.436;-2.742;2023-12-14T04:35:48;4.90;60.70
33863;DHT22;20158;51.436;-2.742;2023-12-14T04:38:14;4.90;60.70
33863;DHT22;20158;51.436;-2.742;2023-12-14T04:40:39;4.90;60.70
33863;DHT22;20158;51.436;-2.742;2023-12-14T04:43:06;5.00;60.90
33863;DHT22;20158;51.436;-2.742;2023-12-14T04:45:32;5.00;60.90
33863;DHT22;20158;51.436;-2.742;2023-12-14T04:48:00;5.00;61.00
33863;DHT22;20158;51.436;-2.742;2023-12-14T04:50:26;5.00;61.50
33863;DHT22;20158;51.436;-2.742;2023-12-14T04:52:52;5.00;61.00
33863;DHT22;20158;51.436;-2.742;2023-12-14T04:55:18;5.00;61.00
33863;DHT22;20158;51.436;-2.742;2023-12-14T04:57:44;5.00;61.00
33863;DHT22;20158;51.436;-2.742;2023-12-14T05:00:12;5.00;61.00
33863;DHT22;20158;51.436;-2.742;2023-12-14T05:02:38;5.10;61.20
33863;DHT22;20158;51.436;-2.742;2023-12-14T05:05:04;5.10;61.20
33863;DHT22;20158;51.436;-2.742;2023-12-14T05:07:32;5.10;61.30
33863;DHT22;20158;51.436;-2.742;2023-12-14T05:10:01;5.10;61.20
33863;DHT22;20158;51.436;-2.742;2023-12-14T05:12:27;5.10;61.30
33863;DHT22;20158;51.436;-2.742;2023-12-14T05:14:54;5.10;61.30
33863;DHT22;20158;51.436;-2.742;2023-12-14T05:17:20;5.20;61.50
33863;DHT22;20158;51.436;-2.742;2023-12-14T05:19:47;5.10;61.30
33863;DHT22;20158;51.436;-2.742;2023-12-14T05:22:14;5.10;61.30
33863;DHT22;20158;51.436;-2.742;2023-12-14T05:24:39;5.10;61.40
33863;DHT22;20158;51.436;-2.742;2023-12-14T05:27:06;5.20;61.60
33863;DHT22;20158;51.436;-2.742;2023-12-14T05:29:35;5.20;61.60
33863;DHT22;20158;51.436;-2.742;2023-12-14T05:32:02;5.20;61.70
33863;DHT22;20158;51.436;-2.742;2023-12-14T05:34:27;5.20;61.70
33863;DHT22;20158;51.436;-2.742;2023-12-14T05:36:54;5.20;61.70
33863;DHT22;20158;51.436;-2.742;2023-12-14T05:39:21;5.20;61.70
33863;DHT22;20158;51.436;-2.742;2023-12-14T05:41:48;5.20;61.70
33863;DHT22;20158;51.436;-2.742;2023-12-14T05:44:15;5.20;61.80
33863;DHT22;20158;51.436;-2.742;2023-12-14T05:46:41;5.30;62.00
33863;DHT22;20158;51.436;-2.742;2023-12-14T05:49:10;5.30;62.00
33863;DHT22;20158;51.436;-2.742;2023-12-14T05:51:37;5.30;62.00
33863;DHT22;20158;51.436;-2.742;2023-12-14T05:54:09;5.30;62.00
33863;DHT22;20158;51.436;-2.742;2023-12-14T05:56:35;5.30;62.00
33863;DHT22;20158;51.436;-2.742;2023-12-14T05:59:03;5.40;62.20
33863;DHT22;20158;51.436;-2.742;2023-12-14T06:01:29;5.40;62.30
33863;DHT22;20158;51.436;-2.742;2023-12-14T06:03:58;5.40;62.30
33863;DHT22;20158;51.436;-2.742;2023-12-14T06:06:32;5.40;62.30
33863;DHT22;20158;51.436;-2.742;2023-12-14T06:09:00;5.40;62.40
33863;DHT22;20158;51.436;-2.742;2023-12-14T06:11:27;5.40;62.40
33863;DHT22;20158;51.436;-2.742;2023-12-14T06:13:52;5.50;62.60
33863;DHT22;20158;51.436;-2.742;2023-12-14T06:16:22;5.50;63.10
33863;DHT22;20158;51.436;-2.742;2023-12-14T06:18:48;5.50;62.60
33863;DHT22;20158;51.436;-2.742;2023-12-14T06:21:14;5.50;62.60
33863;DHT22;20158;51.436;-2.742;2023-12-14T06:23:40;5.50;62.70
33863;DHT22;20158;51.436;-2.742;2023-12-14T06:26:07;5.60;62.90
33863;DHT22;20158;51.436;-2.742;2023-12-14T06:28:33;5.60;63.00
33863;DHT22;20158;51.436;-2.742;2023-12-14T06:31:00;5.60;63.00
33863;DHT22;20158;51.436;-2.742;2023-12-14T06:33:27;5.60;63.00
33863;DHT22;20158;51.436;-2.742;2023-12-14T06:35:53;5.60;63.10
33863;DHT22;20158;51.436;-2.742;2023-12-14T06:38:22;5.60;63.10
33863;DHT22;20158;51.436;-2.742;2023-12-14T06:40:48;5.60;63.10
33863;DHT22;20158;51.436;-2.742;2023-12-14T06:43:23;5.70;63.30
33863;DHT22;20158;51.436;-2.742;2023-12-14T06:45:49;5.70;63.40
33863;DHT22;20158;51.436;-2.742;2023-12-14T06:48:16;5.70;63.40
33863;DHT22;20158;51.436;-2.742;2023-12-14T06:50:43;5.70;63.40
33863;DHT22;20158;51.436;-2.742;2023-12-14T06:53:09;5.80;63.60
33863;DHT22;20158;51.436;-2.742;2023-12-14T06:55:35;5.80;63.70
33863;DHT22;20158;51.436;-2.742;2023-12-14T06:58:02;5.80;63.90
33863;DHT22;20158;51.436;-2.742;2023-12-14T07:00:29;5.80;63.90
33863;DHT22;20158;51.436;-2.742;2023-12-14T07:02:57;5.80;64.00
33863;DHT22;20158;51.436;-2.742;2023-12-14T07:05:23;5.90;64.20
33863;DHT22;20158;51.436;-2.742;2023-12-14T07:07:50;5.90;64.20
33863;DHT22;20158;51.436;-2.742;2023-12-14T07:10:17;6.00;64.50
33863;DHT22;20158;51.436;-2.742;2023-12-14T07:12:43;6.00;64.80
33863;DHT22;20158;51.436;-2.742;2023-12-14T07:15:10;6.10;65.20
33863;DHT22;20158;51.436;-2.742;2023-12-14T07:17:41;6.20;65.60
33863;DHT22;20158;51.436;-2.742;2023-12-14T07:20:10;6.30;66.00
33863;DHT22;20158;51.436;-2.742;2023-12-14T07:22:39;6.30;66.10
33863;DHT22;20158;51.436;-2.742;2023-12-14T07:25:05;6.50;66.60
33863;DHT22;20158;51.436;-2.742;2023-12-14T07:27:32;6.60;66.80
33863;DHT22;20158;51.436;-2.742;2023-12-14T07:29:58;6.70;67.10
33863;DHT22;20158;51.436;-2.742;2023-12-14T07:32:26;6.70;67.10
33863;DHT22;20158;51.436;-2.742;2023-12-14T07:34:52;6.70;67.20
33863;DHT22;20158;51.436;-2.742;2023-12-14T07:37:19;6.80;67.50
33863;DHT22;20158;51.436;-2.742;2023-12-14T07:39:45;6.80;67.50
33863;DHT22;20158;51.436;-2.742;2023-12-14T07:42:14;6.80;67.60
33863;DHT22;20158;51.436;-2.742;2023-12-14T07:44:45;6.80;67.60
33863;DHT22;20158;51.436;-2.742;2023-12-14T07:47:12;6.80;67.70
33863;DHT22;20158;51.436;-2.742;2023-12-14T07:49:39;6.70;67.50
33863;DHT22;20158;51.436;-2.742;2023-12-14T07:52:05;6.80;67.80
33863;DHT22;20158;51.436;-2.742;2023-12-14T07:54:35;6.80;67.80
33863;DHT22;20158;51.436;-2.742;2023-12-14T07:57:02;6.80;67.90
33863;DHT22;20158;51.436;-2.742;2023-12-14T07:59:29;6.80;67.90
33863;DHT22;20158;51.436;-2.742;2023-12-14T08:01:56;6.80;67.90
33863;DHT22;20158;51.436;-2.742;2023-12-14T08:04:22;6.80;68.00
33863;DHT22;20158;51.436;-2.742;2023-12-14T08:06:50;6.80;68.00
33863;DHT22;20158;51.436;-2.742;2023-12-14T08:09:16;6.80;68.00
33863;DHT22;20158;51.436;-2.742;2023-12-14T08:11:42;6.80;68.10
33863;DHT22;20158;51.436;-2.742;2023-12-14T08:14:09;6.80;68.10
33863;DHT22;20158;51.436;-2.742;2023-12-14T08:16:37;6.80;68.10
33863;DHT22;20158;51.436;-2.742;2023-12-14T08:19:03;6.80;68.10
33863;DHT22;20158;51.436;-2.742;2023-12-14T08:21:30;6.80;68.20
33863;DHT22;20158;51.436;-2.742;2023-12-14T08:23:56;6.80;68.20
33863;DHT22;20158;51.436;-2.742;2023-12-14T08:26:22;6.90;68.30
33863;DHT22;20158;51.436;-2.742;2023-12-14T08:28:49;6.80;68.20
33863;DHT22;20158;51.436;-2.742;2023-12-14T08:31:18;6.90;68.40
33863;DHT22;20158;51.436;-2.742;2023-12-14T08:33:46;6.90;68.90
33863;DHT22;20158;51.436;-2.742;2023-12-14T08:36:21;6.90;68.40
33863;DHT22;20158;51.436;-2.742;2023-12-14T08:38:48;6.90;68.50
33863;DHT22;20158;51.436;-2.742;2023-12-14T08:41:15;6.90;68.90
33863;DHT22;20158;51.436;-2.742;2023-12-14T08:43:43;7.00;68.60
33863;DHT22;20158;51.436;-2.742;2023-12-14T08:46:13;7.00;68.60
33863;DHT22;20158;51.436;-2.742;2023-12-14T08:48:41;7.00;68.60
33863;DHT22;20158;51.436;-2.742;2023-12-14T08:51:08;7.00;68.60
33863;DHT22;20158;51.436;-2.742;2023-12-14T08:53:36;7.10;68.80
33863;DHT22;20158;51.436;-2.742;2023-12-14T08:56:04;7.10;68.80
33863;DHT22;20158;51.436;-2.742;2023-12-14T08:58:34;7.10;68.70
33863;DHT22;20158;51.436;-2.742;2023-12-14T09:01:01;7.20;68.90
33863;DHT22;20158;51.436;-2.742;2023-12-14T09:03:28;7.20;68.90
33863;DHT22;20158;51.436;-2.742;2023-12-14T09:05:56;7.30;69.10
33863;DHT22;20158;51.436;-2.742;2023-12-14T09:08:24;7.30;69.10
33863;DHT22;20158;51.436;-2.742;2023-12-14T09:10:52;7.30;69.10
33863;DHT22;20158;51.436;-2.742;2023-12-14T09:13:19;7.40;69.20
33863;DHT22;20158;51.436;-2.742;2023-12-14T09:15:47;7.40;69.30
33863;DHT22;20158;51.436;-2.742;2023-12-14T09:18:16;7.40;69.20
33863;DHT22;20158;51.436;-2.742;2023-12-14T09:20:45;7.50;69.40
33863;DHT22;20158;51.436;-2.742;2023-12-14T09:23:19;7.50;69.40
33863;DHT22;20158;51.436;-2.742;2023-12-14T09:25:47;7.60;69.50
33863;DHT22;20158;51.436;-2.742;2023-12-14T09:28:15;7.60;69.50
33863;DHT22;20158;51.436;-2.742;2023-12-14T09:30:42;7.70;69.60
33863;DHT22;20158;51.436;-2.742;2023-12-14T09:33:10;7.80;69.80
33863;DHT22;20158;51.436;-2.742;2023-12-14T09:35:42;7.80;69.80
33863;DHT22;20158;51.436;-2.742;2023-12-14T09:38:15;7.80;69.80
33863;DHT22;20158;51.436;-2.742;2023-12-14T09:40:45;7.90;69.90
33863;DHT22;20158;51.436;-2.742;2023-12-14T09:43:12;7.90;70.20
33863;DHT22;20158;51.436;-2.742;2023-12-14T09:45:41;8.00;70.00
33863;DHT22;20158;51.436;-2.742;2023-12-14T09:48:15;8.00;70.00
33863;DHT22;20158;51.436;-2.742;2023-12-14T09:50:41;8.00;70.00
33863;DHT22;20158;51.436;-2.742;2023-12-14T09:53:11;8.10;70.30
33863;DHT22;20158;51.436;-2.742;2023-12-14T09:55:40;8.10;70.30
33863;DHT22;20158;51.436;-2.742;2023-12-14T09:58:06;8.10;70.30
33863;DHT22;20158;51.436;-2.742;2023-12-14T10:00:37;8.20;70.50
33863;DHT22;20158;51.436;-2.742;2023-12-14T10:03:28;8.20;70.50
33863;DHT22;20158;51.436;-2.742;2023-12-14T10:05:55;8.30;70.70
33863;DHT22;20158;51.436;-2.742;2023-12-14T10:08:24;8.30;70.60
33863;DHT22;20158;51.436;-2.742;2023-12-14T10:10:52;8.30;70.60
33863;DHT22;20158;51.436;-2.742;2023-12-14T10:13:20;8.40;70.80
33863;DHT22;20158;51.436;-2.742;2023-12-14T10:15:49;8.40;70.80
33863;DHT22;20158;51.436;-2.742;2023-12-14T10:18:23;8.50;71.00
33863;DHT22;20158;51.436;-2.742;2023-12-14T10:20:57;8.50;71.00
33863;DHT22;20158;51.436;-2.742;2023-12-14T10:23:27;8.60;71.20
33863;DHT22;20158;51.436;-2.742;2023-12-14T10:25:55;8.60;71.20
33863;DHT22;20158;51.436;-2.742;2023-12-14T10:28:23;8.70;71.30
33863;DHT22;20158;51.436;-2.742;2023-12-14T10:30:52;8.80;71.40
33863;DHT22;20158;51.436;-2.742;2023-12-14T10:33:20;8.80;71.30
33863;DHT22;20158;51.436;-2.742;2023-12-14T10:35:46;8.90;71.40
33863;DHT22;20158;51.436;-2.742;2023-12-14T10:38:15;9.00;71.50
33863;DHT22;20158;51.436;-2.742;2023-12-14T10:40:45;9.00;71.50
33863;DHT22;20158;51.436;-2.742;2023-12-14T10:43:12;9.00;71.50
33863;DHT22;20158;51.436;-2.742;2023-12-14T10:45:39;9.10;71.60
33863;DHT22;20158;51.436;-2.742;2023-12-14T10:48:08;9.10;71.60
33863;DHT22;20158;51.436;-2.742;2023-12-14T10:50:37;9.20;71.80
33863;DHT22;20158;51.436;-2.742;2023-12-14T10:53:05;9.20;71.80
33863;DHT22;20158;51.436;-2.742;2023-12-14T10:55:42;9.30;71.90
33863;DHT22;20158;51.436;-2.742;2023-12-14T10:58:09;9.30;71.90
33863;DHT22;20158;51.436;-2.742;2023-12-14T11:00:37;9.40;72.00
33863;DHT22;20158;51.436;-2.742;2023-12-14T11:03:06;9.50;72.00
33863;DHT22;20158;51.436;-2.742;2023-12-14T11:05:35;9.50;72.00
33863;DHT22;20158;51.436;-2.742;2023-12-14T11:08:04;9.60;72.10
33863;DHT22;20158;51.436;-2.742;2023-12-14T11:10:37;9.60;72.00
33863;DHT22;20158;51.436;-2.742;2023-12-14T11:15:37;9.70;72.00
33863;DHT22;20158;51.436;-2.742;2023-12-14T11:21:01;9.80;72.00
33863;DHT22;20158;51.436;-2.742;2023-12-14T11:23:33;9.90;72.10
33863;DHT22;20158;51.436;-2.742;2023-12-14T11:26:09;9.90;72.00
33863;DHT22;20158;51.436;-2.742;2023-12-14T11:28:37;10.00;72.60
33863;DHT22;20158;51.436;-2.742;2023-12-14T11:31:04;10.10;72.20
33863;DHT22;20158;51.436;-2.742;2023-12-14T11:33:33;10.10;72.20
33863;DHT22;20158;51.436;-2.742;2023-12-14T11:36:02;10.10;72.10
33863;DHT22;20158;51.436;-2.742;2023-12-14T11:38:32;10.20;72.30
33863;DHT22;20158;51.436;-2.742;2023-12-14T11:40:58;10.20;72.20
33863;DHT22;20158;51.436;-2.742;2023-12-14T11:43:25;10.30;72.40
33863;DHT22;20158;51.436;-2.742;2023-12-14T11:45:55;10.30;72.40
33863;DHT22;20158;51.436;-2.742;2023-12-14T11:48:22;10.30;72.40
33863;DHT22;20158;51.436;-2.742;2023-12-14T11:50:48;10.40;72.50
33863;DHT22;20158;51.436;-2.742;2023-12-14T11:53:14;10.40;72.50
33863;DHT22;20158;51.436;-2.742;2023-12-14T11:55:41;10.40;72.50
33863;DHT22;20158;51.436;-2.742;2023-12-14T11:58:08;10.50;72.60
33863;DHT22;20158;51.436;-2.742;2023-12-14T12:00:34;10.60;72.70
33863;DHT22;20158;51.436;-2.742;2023-12-14T12:03:09;10.60;72.60
33863;DHT22;20158;51.436;-2.742;2023-12-14T12:05:47;10.60;72.60
33863;DHT22;20158;51.436;-2.742;2023-12-14T12:08:18;10.70;72.70
33863;DHT22;20158;51.436;-2.742;2023-12-14T12:10:45;10.70;72.60
33863;DHT22;20158;51.436;-2.742;2023-12-14T12:13:14;10.70;72.60
33863;DHT22;20158;51.436;-2.742;2023-12-14T12:15:40;10.70;72.50
33863;DHT22;20158;51.436;-2.742;2023-12-14T12:18:08;10.80;72.70
33863;DHT22;20158;51.436;-2.742;2023-12-14T12:20:34;10.80;72.70
33863;DHT22;20158;51.436;-2.742;2023-12-14T12:23:04;10.80;72.70
33863;DHT22;20158;51.436;-2.742;2023-12-14T12:25:30;10.90;72.80
33863;DHT22;20158;51.436;-2.742;2023-12-14T12:27:58;10.90;72.70
33863;DHT22;20158;51.436;-2.742;2023-12-14T12:30:24;10.90;72.60
33863;DHT22;20158;51.436;-2.742;2023-12-14T12:32:51;11.00;72.70
33863;DHT22;20158;51.436;-2.742;2023-12-14T12:35:18;10.90;72.60
33863;DHT22;20158;51.436;-2.742;2023-12-14T12:37:44;11.00;72.80
33863;DHT22;20158;51.436;-2.742;2023-12-14T12:40:11;11.00;72.80
33863;DHT22;20158;51.436;-2.742;2023-12-14T12:42:37;11.00;72.80
33863;DHT22;20158;51.436;-2.742;2023-12-14T12:45:04;11.00;72.80
33863;DHT22;20158;51.436;-2.742;2023-12-14T12:47:30;11.00;72.80
33863;DHT22;20158;51.436;-2.742;2023-12-14T12:49:56;11.00;72.80
33863;DHT22;20158;51.436;-2.742;2023-12-14T12:52:22;11.10;72.90
33863;DHT22;20158;51.436;-2.742;2023-12-14T12:54:48;11.00;72.70
33863;DHT22;20158;51.436;-2.742;2023-12-14T12:57:14;11.00;73.30
33863;DHT22;20158;51.436;-2.742;2023-12-14T12:59:40;11.00;72.80
33863;DHT22;20158;51.436;-2.742;2023-12-14T13:02:06;11.00;72.80
33863;DHT22;20158;51.436;-2.742;2023-12-14T13:04:32;11.00;72.80
33863;DHT22;20158;51.436;-2.742;2023-12-14T13:06:58;11.00;72.80
33863;DHT22;20158;51.436;-2.742;2023-12-14T13:09:27;11.00;72.80
33863;DHT22;20158;51.436;-2.742;2023-12-14T13:11:54;10.90;72.70
33863;DHT22;20158;51.436;-2.742;2023-12-14T13:14:20;10.90;72.70
33863;DHT22;20158;51.436;-2.742;2023-12-14T13:16:47;10.90;72.70
33863;DHT22;20158;51.436;-2.742;2023-12-14T13:19:18;10.90;72.70
33863;DHT22;20158;51.436;-2.742;2023-12-14T13:21:44;10.90;72.70
33863;DHT22;20158;51.436;-2.742;2023-12-14T13:24:10;10.80;72.60
33863;DHT22;20158;51.436;-2.742;2023-12-14T13:26:36;10.80;72.60
33863;DHT22;20158;51.436;-2.742;2023-12-14T13:29:02;10.90;72.80
33863;DHT22;20158;51.436;-2.742;2023-12-14T13:31:28;10.80;72.60
33863;DHT22;20158;51.436;-2.742;2023-12-14T13:33:54;10.80;72.60
33863;DHT22;20158;51.436;-2.742;2023-12-14T13:36:20;10.80;73.10
33863;DHT22;20158;51.436;-2.742;2023-12-14T13:38:46;10.80;72.60
33863;DHT22;20158;51.436;-2.742;2023-12-14T13:41:13;10.80;72.60
33863;DHT22;20158;51.436;-2.742;2023-12-14T13:43:39;10.80;72.60
33863;DHT22;20158;51.436;-2.742;2023-12-14T13:46:06;10.80;72.60
33863;DHT22;20158;51.436;-2.742;2023-12-14T13:48:32;10.80;72.60
33863;DHT22;20158;51.436;-2.742;2023-12-14T13:50:58;10.80;72.60
33863;DHT22;20158;51.436;-2.742;2023-12-14T13:53:25;10.80;72.60
33863;DHT22;20158;51.436;-2.742;2023-12-14T13:55:52;10.80;72.60
33863;DHT22;20158;51.436;-2.742;2023-12-14T13:58:18;10.80;72.70
33863;DHT22;20158;51.436;-2.742;2023-12-14T14:00:44;10.80;72.70
33863;DHT22;20158;51.436;-2.742;2023-12-14T14:03:10;10.80;72.70
33863;DHT22;20158;51.436;-2.742;2023-12-14T14:05:36;10.70;72.50
33863;DHT22;20158;51.436;-2.742;2023-12-14T14:08:03;10.70;72.50
33863;DHT22;20158;51.436;-2.742;2023-12-14T14:10:30;10.70;72.50
33863;DHT22;20158;51.436;-2.742;2023-12-14T14:12:56;10.70;72.60
33863;DHT22;20158;51.436;-2.742;2023-12-14T14:15:22;10.70;72.60
33863;DHT22;20158;51.436;-2.742;2023-12-14T14:17:49;10.70;72.60
33863;DHT22;20158;51.436;-2.742;2023-12-14T14:20:18;10.70;72.60
33863;DHT22;20158;51.436;-2.742;2023-12-14T14:22:44;10.70;72.60
33863;DHT22;20158;51.436;-2.742;2023-12-14T14:25:10;10.70;72.60
33863;DHT22;20158;51.436;-2.742;2023-12-14T14:27:36;10.70;72.60
33863;DHT22;20158;51.436;-2.742;2023-12-14T14:30:04;10.70;72.60
33863;DHT22;20158;51.436;-2.742;2023-12-14T14:32:30;10.70;72.60
33863;DHT22;20158;51.436;-2.742;2023-12-14T14:35:01;10.60;72.50
33863;DHT22;20158;51.436;-2.742;2023-12-14T14:37:27;10.70;73.10
33863;DHT22;20158;51.436;-2.742;2023-12-14T14:39:53;10.70;72.60
33863;DHT22;20158;51.436;-2.742;2023-12-14T14:42:19;10.60;72.50
33863;DHT22;20158;51.436;-2.742;2023-12-14T14:44:45;10.60;72.50
33863;DHT22;20158;51.436;-2.742;2023-12-14T14:47:11;10.60;72.50
33863;DHT22;20158;51.436;-2.742;2023-12-14T14:49:38;10.60;72.50
33863;DHT22;20158;51.436;-2.742;2023-12-14T14:52:04;10.60;72.60
33863;DHT22;20158;51.436;-2.742;2023-12-14T14:54:31;10.60;72.60
33863;DHT22;20158;51.436;-2.742;2023-12-14T14:56:57;10.60;72.60
33863;DHT22;20158;51.436;-2.742;2023-12-14T14:59:23;10.50;72.50
33863;DHT22;20158;51.436;-2.742;2023-12-14T15:01:49;10.50;72.50
33863;DHT22;20158;51.436;-2.742;2023-12-14T15:04:16;10.50;72.60
33863;DHT22;20158;51.436;-2.742;2023-12-14T15:06:43;10.50;72.60
33863;DHT22;20158;51.436;-2.742;2023-12-14T15:09:09;10.50;72.70
33863;DHT22;20158;51.436;-2.742;2023-12-14T15:11:35;10.50;72.70
33863;DHT22;20158;51.436;-2.742;2023-12-14T15:14:01;10.50;72.70
33863;DHT22;20158;51.436;-2.742;2023-12-14T15:16:27;10.40;72.60
33863;DHT22;20158;51.436;-2.742;2023-12-14T15:18:53;10.50;72.70
33863;DHT22;20158;51.436;-2.742;2023-12-14T15:21:19;10.40;72.60
33863;DHT22;20158;51.436;-2.742;2023-12-14T15:23:45;10.40;72.60
33863;DHT22;20158;51.436;-2.742;2023-12-14T15:26:13;10.40;72.70
33863;DHT22;20158;51.436;-2.742;2023-12-14T15:28:39;10.40;72.70
33863;DHT22;20158;51.436;-2.742;2023-12-14T15:31:06;10.40;72.70
33863;DHT22;20158;51.436;-2.742;2023-12-14T15:33:32;10.40;72.80